logo
App data

Crayon Physics Deluxe

Crayon Physics Deluxe is a 2D physics puzzle / sandbox game, in which you get to experience what it would be like if your drawings would be magically transformed into real physical objects. Solve puzzles with your artistic vision and creative use of physics.
Store | Hub | SteamDB | Site
Developer: Kloonigames Publisher: Kloonigames
Genre: Casual, Indie
Languages: English
Tags: Indie (96), Casual (91), Puzzle (89), Physics (71), Family Friendly (47), Touch-Friendly (44), Singleplayer (41), 2D (35), Cute (30), Relaxing (14), Sandbox (14), Level Editor (11), Simulation (10), Great Soundtrack (5)
Category: Single-player
Release date: May 6, 2009
Price: $19.99
Score rank: 80% Userscore: 91% Old userscore: 85% Metascore: 79%
Owners: 500,000 .. 1,000,000
Followers: 1,072
Peak concurrent players yesterday: 5
Playtime total: 00:57 (average) 00:24 (median)

Steam Spy is still in beta, so expect major bugs.

Owners data:

Access restricted.

This feature is only available to users with special access rights. Sorry.

If you want to proceed, you need to register or log in first and then back Steam Spy on Patreon. Look for Indie or Pro pledge.

Don't forget to use the same email as on Steam Spy!

Audience in 2 weeks:

Access restricted.

This feature is only available to users with special access rights. Sorry.

If you want to proceed, you need to register or log in first and then back Steam Spy on Patreon. Look for Indie or Pro pledge.

Don't forget to use the same email as on Steam Spy!

Peak daily concurrent players:

CCU data courtesy of SteamDB. Used with permission.

Hourly concurrent players:

Daily Twitch stats:

Hourly Twitch stats:

YouTube:

The views data is based on top 50 videos uploaded last week. Actual number of views might be more than the number shown.

The displayed number of videos uploaded yesterday is limited to 50, so if there were more videos uploaded, the number will still show 50.

If the game has commonly used word as its name (like "FEAR" or "Volume") its number of Youtube views might be wrong.

Games similar to this one:

# Game Release date
Price
Score rank
(Userscore / Metascore)
Owners
Players
Playtime (Median)
1 Night Blights Apr 15, 2016 $4.99100% (100%)0 .. 20,0000%00:00 (00:00)
2 Carrie's Order Up! Sep 12, 2016 $2.9999% (98%)0 .. 20,0000%00:00 (00:00)
3 Hidden in Plain Sight Jul 16, 2014 $5.9999% (98%)20,000 .. 50,0000%00:00 (00:00)
4 Everyday Genius: SquareLogic Oct 21, 2009 $4.9999% (98%)0 .. 20,0000%00:00 (00:00)
5 Quell May 14, 2015 $3.9999% (98%)0 .. 20,0000%00:00 (00:00)
6 Luxor Evolved Mar 1, 2012 $9.9997% (97%)50,000 .. 100,0000.48%00:22 (00:07)
7 Hustle Cat Mar 16, 2016 $19.9995% (96%)20,000 .. 50,0000%00:00 (00:00)
8 HyperRogue Jan 16, 2015 $4.9995% (96%)20,000 .. 50,0001.45%03:06 (01:02)
9 Letter Quest: Grimm's Journey Nov 20, 2014 N/A95% (96%/73%)50,000 .. 100,0000%00:00 (00:00)
10 Creeper World: Anniversary Edition Nov 16, 2016 $4.9995% (96%)0 .. 20,0000%00:00 (00:00)
11 The Counting Kingdom Aug 5, 2014 $6.9993% (95%)0 .. 20,0000%00:00 (00:00)
12 A Good Snowman Is Hard To Build Feb 25, 2015 $9.9993% (95%)20,000 .. 50,0000%00:00 (00:00)
13 Unium Mar 27, 2015 $1.9993% (95%)20,000 .. 50,0000%00:00 (00:00)
14 Space Hole 2016 Sep 2, 2016 $0.99N/A (N/A)0 .. 20,0000%00:00 (00:00)
15 Moonlight Feb 5, 2016 $1.9993% (95%)0 .. 20,0000%00:00 (00:00)
16 Overload May 31, 2018 $29.9993% (95%/74%)20,000 .. 50,00015%01:13 (01:03)
17 Chip's Challenge 2 May 28, 2015 $4.9990% (94%)20,000 .. 50,0000%00:00 (00:00)
18 Pictopix Jan 5, 2017 $6.9990% (94%)0 .. 20,0007.69%02:54 (00:58)
19 Gateways Sep 13, 2012 $4.9987% (93%/72%)50,000 .. 100,0000%00:00 (00:00)
20 Girls Like Robots Feb 14, 2014 $6.9987% (93%)100,000 .. 200,0000%00:00 (00:00)
21 Strata May 29, 2014 $7.9987% (93%)50,000 .. 100,0000%00:00 (00:00)
22 [the Sequence] Mar 30, 2016 $1.9987% (93%)0 .. 20,0000%00:00 (00:00)
23 Prelogate Dec 10, 2014 $3.9987% (93%)0 .. 20,0000%00:00 (00:00)
24 Unhack Jan 9, 2015 $3.9987% (93%)20,000 .. 50,0000%00:00 (00:00)
25 Swapperoo Dec 18, 2015 $4.99N/A (N/A)0 .. 20,0000%00:00 (00:00)
26 Modbox Apr 5, 2016 $14.9984% (92%)20,000 .. 50,0005.88%00:36 (00:19)
27 Goats on a Bridge Feb 6, 2015 $4.9984% (92%)50,000 .. 100,0000%00:00 (00:00)
28 Earthtongue Apr 27, 2015 $2.4984% (92%)20,000 .. 50,0000%00:00 (00:00)
29 Triple Town Dec 6, 2012 $9.9984% (92%)50,000 .. 100,0000%00:00 (00:00)
30 Titans of Space 2.0 May 23, 2016 $7.9984% (92%)0 .. 20,0000%00:00 (00:00)
31 Dream Car Builder Sep 21, 2018 $14.9984% (92%)0 .. 20,0000%00:00 (00:00)
32 Windosill Sep 25, 2009 $2.9980% (91%)100,000 .. 200,0000%00:00 (00:00)
33 Grapple Mar 9, 2015 $6.9980% (91%)20,000 .. 50,0000%00:00 (00:00)
34 Soundodger+ Oct 11, 2013 $7.9980% (91%/78%)50,000 .. 100,0002.04%01:45 (01:09)
35 Tribloos 2 Jan 30, 2014 $4.9980% (91%)100,000 .. 200,0000.22%00:53 (00:17)
36 Cloudberry Kingdom Aug 2, 2013 $9.9980% (91%/67%)20,000 .. 50,0000%00:00 (00:00)
37 Oik 2 Mar 28, 2017 $0.9980% (91%)20,000 .. 50,0000.75%04:59 (01:39)
38 PANORAMICAL Sep 17, 2015 $9.9977% (90%)0 .. 20,0000%00:00 (00:00)
39 Frog Climbers Oct 6, 2016 $6.9977% (90%)20,000 .. 50,0000%00:00 (00:00)
40 Mu Cartographer Aug 24, 2016 $4.9977% (90%)0 .. 20,0000%00:00 (00:00)
41 Cubot Jan 8, 2015 $1.9977% (90%)20,000 .. 50,0000%00:00 (00:00)
42 Sokobond Jul 21, 2014 $9.9977% (90%/82%)20,000 .. 50,0000%00:00 (00:00)
43 On Rusty Trails Jun 13, 2016 $12.9977% (90%/77%)50,000 .. 100,0001.09%00:25 (00:16)
44 One Night Stand Nov 7, 2016 $2.9977% (90%)20,000 .. 50,0000%00:00 (00:00)
45 LogiGun Jul 22, 2014 $4.9977% (90%)0 .. 20,0000%00:00 (00:00)
46 CarX Drift Racing Online Nov 17, 2017 $9.9974% (89%)100,000 .. 200,00013.39%00:58 (01:17)
47 Parallax Mar 10, 2015 $4.9974% (89%/68%)0 .. 20,0000%00:00 (00:00)
48 12 Labours of Hercules V: Kids of Hellas (Platinum Edition) Jun 17, 2016 $2.9974% (89%)20,000 .. 50,0000%00:00 (00:00)
49 The Reject Demon: Toko Chapter 0 — Prelude May 8, 2015 $4.9974% (89%)0 .. 20,0001.54%03:46 (01:15)
50 Glowfish Sep 30, 2011 $9.9974% (89%)50,000 .. 100,0000%00:00 (00:00)
51 This Starry Midnight We Make Jun 1, 2015 $9.99N/A (N/A)0 .. 20,0000%00:00 (00:00)
52 Forgotten, Not Lost - A Kinetic Novel Apr 1, 2016 $1.9974% (89%)50,000 .. 100,0000.33%03:26 (01:08)
53 Koala Kids Jun 22, 2015 $1.9974% (89%)20,000 .. 50,0000%00:00 (00:00)
54 Beyond Gravity Sep 23, 2014 $1.9971% (88%)20,000 .. 50,0000%00:00 (00:00)
55 Bob Was Hungry Aug 19, 2015 $9.9971% (88%)20,000 .. 50,0000%00:00 (00:00)
56 Rooms: The Unsolvable Puzzle May 1, 2015 $14.9971% (88%/66%)0 .. 20,0000%00:00 (00:00)
57 Army of Pixels Oct 29, 2015 $4.99N/A (N/A)0 .. 20,0000%00:00 (00:00)
58 Vampires: Guide Them to Safety! Oct 22, 2014 $4.99N/A (N/A)0 .. 20,0000%00:00 (00:00)
59 Thrillville: Off the Rails Jul 8, 2009 $9.9969% (87%/70%)20,000 .. 50,0000%00:00 (00:00)
60 Dots eXtreme Sep 13, 2016 $1.9969% (87%)20,000 .. 50,0000%00:00 (00:00)
61 Asphyxia Aug 4, 2015 $5.9969% (87%)20,000 .. 50,0001.67%00:30 (00:10)
62 PixelJunk Eden Feb 2, 2012 $9.9969% (87%/81%)200,000 .. 500,0000%00:00 (00:00)
63 Masochisia Oct 9, 2015 $7.9969% (87%/68%)0 .. 20,0000%00:00 (00:00)
64 Golf for Workgroups Apr 6, 2017 $4.99N/A (N/A)0 .. 20,0000%00:00 (00:00)
65 Sophie's Curse Mar 16, 2016 $4.9966% (86%)50,000 .. 100,0000%00:00 (00:00)
66 The Shape Of Heart Oct 25, 2016 $2.9966% (86%)0 .. 20,0000%00:00 (00:00)
67 Never give up! Dec 29, 2016 $2.9966% (86%)0 .. 20,0000%00:00 (00:00)
68 Spy Chameleon - RGB Agent Jun 11, 2014 $4.9966% (86%)50,000 .. 100,0000%00:00 (00:00)
69 Cursed Sight Aug 3, 2015 $5.9966% (86%)0 .. 20,0000%00:00 (00:00)
70 Counter Fight Nov 14, 2016 $7.9963% (85%)0 .. 20,00012.5%00:12 (00:04)
71 Magma Tsunami Jun 1, 2016 $0.9963% (85%)100,000 .. 200,0000.21%08:00 (02:40)
72 Dominique Pamplemousse Mar 11, 2014 $0.9963% (85%/62%)20,000 .. 50,0000%00:00 (00:00)
73 Sentinel 4: Dark Star Aug 13, 2015 $6.99N/A (N/A)0 .. 20,0000%00:00 (00:00)
74 Surfingers Jan 27, 2016 $1.9963% (85%)50,000 .. 100,0001.3%02:17 (02:18)
75 CrossCells May 26, 2017 $2.9963% (85%)20,000 .. 50,0003.92%02:22 (01:34)
76 RePete Mar 9, 2016 $1.99N/A (N/A)0 .. 20,0000%00:00 (00:00)
77 BAD END Nov 25, 2015 $1.9961% (84%)0 .. 20,0000%00:00 (00:00)
78 Job the Leprechaun Jul 31, 2015 $2.9961% (84%)20,000 .. 50,0000%00:00 (00:00)
79 Crash Drive 2 May 28, 2015 $2.4961% (84%)50,000 .. 100,0000%00:00 (00:00)
80 Dead Man's Draw Feb 6, 2014 $6.9961% (84%)20,000 .. 50,0000%00:00 (00:00)
81 Steam and Metal Feb 9, 2015 $4.9958% (83%)0 .. 20,0000%00:00 (00:00)
82 Gridworld Dec 24, 2015 $0.9958% (83%)0 .. 20,0000%00:00 (00:00)
83 Cute Things Dying Violently Sep 2, 2015 $2.9958% (83%)0 .. 20,0000%00:00 (00:00)
84 Governor of Poker 2 - Premium Edition Oct 11, 2010 $14.9958% (83%)20,000 .. 50,0000%00:00 (00:00)
85 The Treasures of Montezuma 4 May 16, 2014 $6.9958% (83%)20,000 .. 50,0001.49%00:01 (00:00)
86 Timore 5 Aug 25, 2016 $7.9958% (83%)0 .. 20,0000%00:00 (00:00)
87 Cyto Jul 10, 2014 $3.9958% (83%)20,000 .. 50,0000%00:00 (00:00)
88 Collisions Jul 28, 2015 $3.9956% (82%)50,000 .. 100,0000.9%04:08 (01:22)
89 Blocks That Matter Aug 19, 2011 $4.9956% (82%/72%)200,000 .. 500,0000%00:00 (00:00)
90 Fantastic Contraption Apr 5, 2016 $19.9956% (82%)50,000 .. 100,0000%00:00 (00:00)
91 ISLANDS: Non-Places Nov 17, 2016 $4.9956% (82%)20,000 .. 50,0000%00:00 (00:00)
92 Asteroids Minesweeper Jul 8, 2016 $1.99N/A (N/A)0 .. 20,0000%00:00 (00:00)
93 Stay Alight Mar 2, 2015 $3.9954% (81%)20,000 .. 50,0000%00:00 (00:00)
94 Sym May 7, 2015 $7.99N/A (N/A/61%)0 .. 20,0000%00:00 (00:00)
95 Cash_Out May 27, 2015 $4.99N/A (N/A)0 .. 20,0000%00:00 (00:00)
96 SnakEscape Feb 12, 2016 $7.9954% (81%)0 .. 20,0001.52%02:29 (00:49)
97 Ancients of Ooga May 20, 2011 $9.99N/A (N/A)20,000 .. 50,0000%00:00 (00:00)
98 Gravity Cat Jul 13, 2016 $2.9952% (80%)20,000 .. 50,0000%00:00 (00:00)
99 Automation - The Car Company Tycoon Game Mar 12, 2015 $29.9952% (80%)50,000 .. 100,00021.13%03:29 (04:47)
100 Blueprint Tycoon May 13, 2016 $2.9952% (80%)50,000 .. 100,0000%00:00 (00:00)
101 Masky Dec 16, 2016 $0.9952% (80%)0 .. 20,0001.79%01:37 (00:32)
102 The Floor is Jelly May 30, 2014 $9.9952% (80%/83%)20,000 .. 50,0000%00:00 (00:00)
103 Auditorium Feb 28, 2012 $6.9952% (80%)50,000 .. 100,0000%00:00 (00:00)
104 Dungeon Painter Studio Feb 26, 2017 $14.9952% (80%)20,000 .. 50,00012%01:56 (00:58)
105 Space Drifters 2D Mar 28, 2016 $0.99N/A (N/A)20,000 .. 50,0000%00:00 (00:00)
106 Dodge Mar 16, 2015 $1.9952% (80%)0 .. 20,0000%00:00 (00:00)
107 Until I Have You Apr 4, 2016 $13.9952% (80%)0 .. 20,0000%00:00 (00:00)
108 Star Sky - ブルームーン Oct 23, 2015 $3.9949% (79%)0 .. 20,0000%00:00 (00:00)
109 Terraform May 8, 2015 $2.99N/A (N/A)0 .. 20,0000%00:00 (00:00)
110 Farm for your Life Jun 16, 2014 $9.9947% (78%)20,000 .. 50,0000%00:00 (00:00)
111 Farm Frenzy 4 Apr 29, 2014 $6.9947% (78%)20,000 .. 50,0002.22%00:26 (00:08)
112 Whirligig VR Media Player Apr 3, 2016 $3.9947% (78%)20,000 .. 50,0004%00:06 (00:02)
113 Particulars Nov 19, 2014 $5.9947% (78%/74%)20,000 .. 50,0000%00:00 (00:00)
114 SinaRun Oct 26, 2015 $2.9946% (77%)20,000 .. 50,0000%00:00 (00:00)
115 Pretentious Game May 20, 2014 $1.9946% (77%)20,000 .. 50,0000%00:00 (00:00)
116 Puzzler World 2 Oct 24, 2011 $4.9946% (77%)20,000 .. 50,0000%00:00 (00:00)
117 Feesh Feb 1, 2016 $0.9946% (77%)0 .. 20,0000%00:00 (00:00)
118 Beeftacular Aug 26, 2016 $2.9946% (77%)0 .. 20,0000%00:00 (00:00)
119 Farm Frenzy: Hurricane Season Jul 3, 2015 $6.99N/A (N/A)0 .. 20,0000%00:00 (00:00)
120 Sig.NULL Sep 27, 2016 $1.9946% (77%)100,000 .. 200,0000%00:00 (00:00)
121 PRINCIPIA: Master of Science Sep 9, 2016 $9.9944% (76%)0 .. 20,0000%00:00 (00:00)
122 Rescue Team 5 Nov 18, 2015 $3.9944% (76%)20,000 .. 50,0000%00:00 (00:00)
123 ConflictCraft Dec 8, 2016 $2.99N/A (N/A)20,000 .. 50,0000%00:00 (00:00)
124 Access Denied Dec 16, 2016 $2.9944% (76%)0 .. 20,0001.82%04:12 (01:24)
125 Pixel Puzzles 2: Birds Feb 20, 2015 $9.9944% (76%)200,000 .. 500,0000.19%01:24 (00:28)
126 Where are my Internets? Dec 16, 2016 $2.9944% (76%)20,000 .. 50,0000%00:00 (00:00)
127 The Deletion Jul 30, 2015 $1.9942% (75%)20,000 .. 50,0000%00:00 (00:00)
128 Kombine Oct 14, 2016 $0.9942% (75%)20,000 .. 50,0000%00:00 (00:00)
129 Prehistoric Tales May 26, 2016 $2.9942% (75%)0 .. 20,0001.96%00:08 (00:02)
130 Crazy Plant Shop Aug 4, 2014 $4.9942% (75%)20,000 .. 50,0000%00:00 (00:00)
131 Fate Tectonics Sep 9, 2015 $9.9942% (75%)0 .. 20,0000%00:00 (00:00)
132 Wars Across The World May 4, 2017 $9.99N/A (N/A)0 .. 20,00020%04:30 (01:30)
133 Sailaway - The Sailing Simulator Feb 27, 2018 $39.9940% (74%)0 .. 20,00012.5%01:25 (00:28)
134 Pythagoria Jan 22, 2016 $1.9940% (74%)0 .. 20,0000%00:00 (00:00)
135 Smooth Operators Jun 10, 2014 $2.9938% (73%)20,000 .. 50,0000%00:00 (00:00)
136 Bunny Hop League Apr 27, 2017 $5.9938% (73%)20,000 .. 50,0004.17%10:30 (06:59)
137 Luxor: 5th Passage Jan 25, 2011 $9.9938% (73%)50,000 .. 100,0000.62%06:41 (02:13)
138 Riddles Of The Past Jul 22, 2016 $6.9938% (73%)0 .. 20,0000%00:00 (00:00)
139 Laserlife Sep 22, 2015 $1.4936% (72%)0 .. 20,0005.13%06:04 (04:02)
140 Satellite Repairman Feb 2, 2017 $3.99N/A (N/A)0 .. 20,0003.85%01:30 (00:30)
141 Crashed Lander Feb 4, 2015 $4.99N/A (N/A)0 .. 20,0000%00:00 (00:00)
142 Sportsfriends Dec 19, 2014 $14.9936% (72%)20,000 .. 50,0000%00:00 (00:00)
143 Lunnye Devitsy Jul 1, 2009 $4.9935% (71%)20,000 .. 50,0000%00:00 (00:00)
144 Typefighters (Steam Edition) Apr 18, 2016 $1.9935% (71%)20,000 .. 50,0000%00:00 (00:00)
145 InFlux Sep 18, 2013 $9.9935% (71%)20,000 .. 50,0000%00:00 (00:00)
146 Caravanserail Mar 10, 2016 $2.99N/A (N/A)0 .. 20,0000%00:00 (00:00)
147 Axel & Pixel Oct 6, 2010 $4.99N/A (N/A)20,000 .. 50,0000%00:00 (00:00)
148 Strategy & Tactics: Dark Ages Aug 4, 2017 $14.9933% (70%)20,000 .. 50,0000%00:00 (00:00)
149 Zipple World Jan 19, 2016 $4.99N/A (N/A)0 .. 20,0000%00:00 (00:00)
150 Point Perfect Jul 17, 2014 $4.9933% (70%)20,000 .. 50,0000.94%00:06 (00:02)
151 Super Lemonade Factory Jul 9, 2014 $4.99N/A (N/A)20,000 .. 50,0000%00:00 (00:00)
152 Music Inside: A VR Rhythm Game Sep 5, 2016 $9.9933% (70%)0 .. 20,0000%00:00 (00:00)
153 Viking Brothers Apr 23, 2014 $9.99N/A (N/A)0 .. 20,0000%00:00 (00:00)
154 Cibele Nov 2, 2015 $8.9931% (69%/71%)50,000 .. 100,0000%00:00 (00:00)
155 Over The Void Nov 11, 2014 $4.9931% (69%)20,000 .. 50,0000%00:00 (00:00)
156 Armor Clash Oct 21, 2015 $4.9931% (69%)0 .. 20,0000%00:00 (00:00)
157 Love in the Glen Jun 8, 2016 $5.99N/A (N/A)20,000 .. 50,0004.08%03:40 (04:25)
158 Storm Jun 27, 2013 $9.9930% (68%/63%)20,000 .. 50,0000%00:00 (00:00)
159 CrossWorlds: Escape Oct 12, 2016 $14.9930% (68%)0 .. 20,0000%00:00 (00:00)
160 JiPS Apr 19, 2016 $2.99N/A (N/A)20,000 .. 50,0000%00:00 (00:00)
161 Our Love Will Grow Dec 4, 2015 $4.9930% (68%)20,000 .. 50,0000%00:00 (00:00)
162 Pester Aug 21, 2015 $0.9930% (68%)100,000 .. 200,0000%00:00 (00:00)
163 One Last Chance Apr 7, 2016 $3.9928% (67%)20,000 .. 50,0000%00:00 (00:00)
164 Mind Games Mar 4, 2016 $2.9928% (67%)0 .. 20,0000%00:00 (00:00)
165 Totally Unbalanced Jul 29, 2016 $2.9928% (67%)0 .. 20,0000%00:00 (00:00)
166 1931: Scheherazade at the Library of Pergamum Mar 26, 2015 $14.9928% (67%)0 .. 20,0000%00:00 (00:00)
167 Mines of Mars Sep 10, 2018 $6.99N/A (N/A)0 .. 20,0000%00:00 (00:00)
168 Quantz Sep 3, 2009 $9.99N/A (N/A/67%)20,000 .. 50,0000%00:00 (00:00)
169 Lift It Jan 20, 2017 $4.9927% (66%)50,000 .. 100,0000%00:00 (00:00)
170 Herding Dog Jan 15, 2016 $2.99N/A (N/A)0 .. 20,0000%00:00 (00:00)
171 Reach for the Sun Nov 7, 2013 $4.9927% (66%)20,000 .. 50,0000%00:00 (00:00)
172 Party Saboteurs: After Party Oct 20, 2016 $9.99N/A (N/A)0 .. 20,0000%00:00 (00:00)
173 Castles Oct 9, 2015 $2.99N/A (N/A)0 .. 20,0000%00:00 (00:00)
174 Painters Guild Sep 1, 2015 $9.9926% (65%)20,000 .. 50,0000%00:00 (00:00)
175 Wildlife Park 2 - Horses Jul 17, 2014 $3.99N/A (N/A)20,000 .. 50,0000%00:00 (00:00)
176 Motorbike Jan 19, 2015 $9.9924% (64%)0 .. 20,0000%00:00 (00:00)
177 Highborn Feb 19, 2013 $1.9924% (64%)0 .. 20,0000%00:00 (00:00)
178 The Treasures of Montezuma 3 Oct 16, 2014 $3.9924% (64%)0 .. 20,0000%00:00 (00:00)
179 Restaurant Empire II May 27, 2009 $19.9924% (64%/64%)50,000 .. 100,0000%00:00 (00:00)
180 Metrocide Dec 15, 2014 $12.9923% (63%/68%)20,000 .. 50,0000%00:00 (00:00)
181 Trino Jan 27, 2011 $4.99N/A (N/A)0 .. 20,0000%00:00 (00:00)
182 Power of Love Jul 21, 2015 $0.9922% (62%)20,000 .. 50,0000%00:00 (00:00)
183 Marble Duel Nov 12, 2015 $4.9922% (62%)50,000 .. 100,0000%00:00 (00:00)
184 Winexy Jan 13, 2017 $0.9921% (61%)20,000 .. 50,0000%00:00 (00:00)
185 Meadowland Oct 22, 2014 $3.99N/A (N/A)0 .. 20,0000%00:00 (00:00)
186 Goodnight Butcher Dec 18, 2015 $1.99N/A (N/A)20,000 .. 50,0000%00:00 (00:00)
187 Pixel Survivors May 5, 2016 $3.9920% (60%)50,000 .. 100,0000%00:00 (00:00)
188 Townopolis Apr 27, 2016 $3.9920% (60%)20,000 .. 50,0000%00:00 (00:00)
189 StarFringe: Adversus Apr 4, 2016 N/AN/A (N/A)20,000 .. 50,0000%00:00 (00:00)
190 Annie Amber Jun 17, 2016 $2.9917% (58%)0 .. 20,0002.13%01:21 (00:27)
191 Wildlife Park 2 - Dino World Jul 17, 2014 $3.9917% (58%)20,000 .. 50,0000%00:00 (00:00)
192 Boss Monster Apr 28, 2016 $4.9916% (57%)20,000 .. 50,0000%00:00 (00:00)
193 Way of Gold and Steel Aug 17, 2015 $8.9916% (56%)20,000 .. 50,0000%00:00 (00:00)
194 Color Syndrome Aug 1, 2016 $0.9916% (56%)20,000 .. 50,0000.54%02:41 (00:53)
195 Rolling Shapes Jun 8, 2015 $0.99N/A (N/A)0 .. 20,0000%00:00 (00:00)
196 Chunks Apr 11, 2016 $19.99N/A (N/A)0 .. 20,0000%00:00 (00:00)
197 Drizzlepath Mar 12, 2015 $2.9914% (54%)0 .. 20,0000%00:00 (00:00)
198 Wildlife Park 3 May 12, 2014 $9.9914% (54%)50,000 .. 100,0000%00:00 (00:00)
199 Dance Magic Feb 15, 2016 $9.99N/A (N/A)0 .. 20,0000%00:00 (00:00)
200 Hired Ops Oct 21, 2016 $9.9914% (54%)20,000 .. 50,0005%00:25 (00:08)
201 Bunny & Piggy Nov 30, 2016 $0.9914% (54%)20,000 .. 50,0000%00:00 (00:00)
202 Backgammon Blitz Nov 12, 2015 $3.9914% (54%)0 .. 20,0000%00:00 (00:00)
203 Reptilian Rebellion Aug 7, 2016 $0.9913% (53%)20,000 .. 50,0000%00:00 (00:00)
204 Gravi Oct 8, 2013 $4.9913% (53%)0 .. 20,0000%00:00 (00:00)
205 Arctic alive Jan 29, 2016 $1.9913% (53%)0 .. 20,0000%00:00 (00:00)
206 Sky to Fly: Soulless Leviathan Jul 22, 2016 $3.9913% (53%)0 .. 20,0000%00:00 (00:00)
207 Pointless Feb 22, 2016 Free13% (52%)0 .. 20,0000%00:00 (00:00)
208 The Good Life Nov 21, 2014 $9.9912% (51%)0 .. 20,0000%00:00 (00:00)
209 Quantum Rush Champions Dec 4, 2014 $9.9912% (51%)20,000 .. 50,0000%00:00 (00:00)
210 Cosmonautica Jul 31, 2015 $9.9912% (51%)100,000 .. 200,0000.83%00:56 (00:37)
211 Pressured Jul 18, 2014 $2.9912% (51%)200,000 .. 500,0000.13%00:01 (00:00)
212 Rage Runner May 16, 2014 $4.99N/A (N/A)0 .. 20,0000%00:00 (00:00)
213 Autumn May 14, 2016 $2.9911% (50%)50,000 .. 100,0000%00:00 (00:00)
214 Racecraft Mar 4, 2016 Free11% (49%)0 .. 20,0000%00:00 (00:00)
215 Wildlife Park 2 - Fantasy Jul 17, 2014 $0.7911% (49%)50,000 .. 100,0000%00:00 (00:00)
216 Ninja Stealth 2 Jan 30, 2017 $0.9910% (48%)20,000 .. 50,0000.76%01:00 (00:20)
217 Rigonauts Aug 7, 2012 $9.9910% (48%/60%)0 .. 20,0000%00:00 (00:00)
218 Astro Emporia Feb 2, 2015 $0.9910% (47%)20,000 .. 50,0000%00:00 (00:00)
219 The Dolls: Reborn May 25, 2016 $4.999% (46%)50,000 .. 100,0000%00:00 (00:00)
220 Weapons Genius Jul 8, 2015 $6.999% (46%)100,000 .. 200,0000%00:00 (00:00)
221 Fiery Disaster Nov 7, 2016 $1.99N/A (N/A)0 .. 20,0000%00:00 (00:00)
222 Evolution Jun 6, 2016 FreeN/A (N/A)20,000 .. 50,0000%00:00 (00:00)
223 Luke Sidewalker Dec 5, 2016 $0.998% (45%)50,000 .. 100,0000.45%01:25 (00:28)
224 Red Goblin: Cursed Forest May 15, 2015 $4.99N/A (N/A)20,000 .. 50,0000%00:00 (00:00)
225 Castle Jan 7, 2015 $4.998% (44%)50,000 .. 100,0000%00:00 (00:00)
226 Oil Enterprise Apr 20, 2016 $19.998% (44%)0 .. 20,0000%00:00 (00:00)
227 Melting Hearts: Our Love Will Grow 2 Apr 29, 2016 N/A8% (43%)20,000 .. 50,0000%00:00 (00:00)
228 iREC Jan 16, 2017 Free7% (42%)20,000 .. 50,0000%00:00 (00:00)
229 Arcadia Dec 2, 2010 $4.997% (42%)0 .. 20,0000%00:00 (00:00)
230 Economic Conquest May 24, 2017 $4.99N/A (N/A)0 .. 20,0000%00:00 (00:00)
231 Farm Life: Natures Adventure Aug 23, 2016 $0.99N/A (N/A)50,000 .. 100,0000%00:00 (00:00)
232 Mech Marines: Steel March Jan 9, 2015 $7.99N/A (N/A)0 .. 20,0000%00:00 (00:00)
233 Hide and Secret Treasure of the Ages Jun 17, 2016 $0.98N/A (N/A)0 .. 20,0000%00:00 (00:00)
234 Hippocampal: The White Sofa May 27, 2014 $4.995% (36%)0 .. 20,0000%00:00 (00:00)
235 Streets of Chaos Jan 28, 2015 $0.994% (34%)100,000 .. 200,0000%00:00 (00:00)
236 The Legions of Rome Sep 13, 2016 $2.99N/A (N/A)0 .. 20,0000%00:00 (00:00)
237 Age of Castles: Warlords May 15, 2015 $1.99N/A (N/A)0 .. 20,0000%00:00 (00:00)
238 Burst Mar 14, 2016 $1.99N/A (N/A)100,000 .. 200,0000%00:00 (00:00)
239 Labyrinth Simulator Sep 21, 2015 $4.994% (31%)0 .. 20,0000%00:00 (00:00)
240 Robot vs Birds Zombies Jul 23, 2015 $0.994% (31%)0 .. 20,0000%00:00 (00:00)
241 The Housewife Aug 25, 2016 $4.993% (29%)200,000 .. 500,0000.14%01:52 (00:37)
242 Wolf Simulator Nov 16, 2016 $3.993% (26%)100,000 .. 200,0000.43%04:20 (01:30)
243 Triangle Jan 30, 2017 $1.99N/A (N/A)100,000 .. 200,0000%00:00 (00:00)
244 Stickmageddon May 18, 2017 $0.99N/A (N/A)20,000 .. 50,0000%00:00 (00:00)

Geography of active players over time, share:

Access restricted.

This feature is only available to users with special access rights. Sorry.

If you want to proceed, you need to register or log in first and then back Steam Spy on Patreon. Look for Indie or Pro pledge.

Don't forget to use the same email as on Steam Spy!

Tags over time:

Access restricted.

This feature is only available to users with special access rights. Sorry.

If you want to proceed, you need to register or log in first and then back Steam Spy on Patreon. Look for Indie or Pro pledge.

Don't forget to use the same email as on Steam Spy!

Owners of this game also own:

Access restricted.

This feature is only available to users with special access rights. Sorry.

If you want to proceed, you need to register or log in first and then back Steam Spy on Patreon. Look for Indie or Pro pledge.

Don't forget to use the same email as on Steam Spy!

Playtime distribution:

Access restricted.

This feature is only available to users with special access rights. Sorry.

If you want to proceed, you need to register or log in first and then back Steam Spy on Patreon. Look for Indie or Pro pledge.

Don't forget to use the same email as on Steam Spy!

Playtime (2 weeks):

Access restricted.

This feature is only available to users with special access rights. Sorry.

If you want to proceed, you need to register or log in first and then back Steam Spy on Patreon. Look for Indie or Pro pledge.

Don't forget to use the same email as on Steam Spy!

User reviews:

Login required.

Please register or log in to see this information.